PHOG METAR and TAF | Updated Today

PHOG METAR

Kahului Airport

Observation time: 7 min. ago

PHOG 291954Z 03017KT 10SM FEW025 SCT045 29/21 A3006 RMK AO2 SLP184 T02940206

Need help? Read our tutorial on how to read METARs or read the parsed version below.

Kahului Airport (PHOG) METAR

  • Weather conditions on Thu, 29 Sep 2022 19:54:00 +0000 (7 min. ago):
  • Present conditions: Dry
  • Clouds: A few at 762 meters; scattered at 1372 meters
  • Visibility: 16093 meters
  • Wind: 30 degrees at 17 knots
  • Temperature: 29 celsius
  • Dew point: 21 celsius
  • Pressure: 30.06 inHg
  • Remarks: AO2 SLP184 T02940206


Useful to know...

PHOG TAF

Kahului Airport

PHOG 291724Z 2918/3018 04011KT P6SM VCSH FEW025 SCT040 FM292000 04018G25KT P6SM FEW030 SCT045 FM300500 05010KT P6SM FEW035
Observation time: 2:37 hr. ago
Need help? Read our tutorial on how to read TAFs or read the parsed version below.

Parsed version of TAF for Kahului Airport (PHOG)

  • From 29 September at 18:00 UTC, to day 30 of the month at 18:00 UTC
  • Clouds: A few at 762 meters; scattered at 1219 meters
  • Wind: 40 degrees at 11
  • Other: In the vicinity, showers of
  • From day 29 of the month at 20:00 UTC
  • Clouds: A few at 914 meters; scattered at 1372 meters
  • Wind: 40 degrees at 18
  • From day 30 of the month at 05:00 UTC
  • Clouds: A few at 1067 meters
  • Wind: 50 degrees at 10